^^
Meteo Knjazevac Station Historical Data
Daily Summary for April 23, 2021 Units:  English    Metric   Both
Daily Weekly Monthly Yearly Custom
  High: Low: Average:
Temperature: 59.9 °F 48 °F 53.1 °F
Dew Point: 50.7 °F 43.5 °F 46.1 °F
Humidity: 88% 68% 78%
Wind Speed: 3mph 0mph 1.1mph
Wind Gust: 7mph - -
Wind- - SSE
Pressure: 30.11 in 30.06 in -
Precipitation: 0.00 in    
Historical Graphs
 
 
Tabular Data for April 23, 2021
Time Temperature Dew Point Pressure Wind Wind Speed Wind Gust Humidity Rainfall Rate (Hourly) solar Conditions
00:00 59.9 °F 49.7 °F 30.06 in NE 2 mph 7 mph 69% 0.00 in 0 W/m2
00:10 59.7 °F 49.5 °F 30.07 in ESE 1 mph 5 mph 69% 0.00 in 0 W/m2
00:20 59.2 °F 48.6 °F 30.06 in Calm   3 mph 68% 0.00 in 0 W/m2
00:30 58.8 °F 48.3 °F 30.06 in NNE 3 mph 6 mph 68% 0.00 in 0 W/m2
00:40 58.5 °F 48.7 °F 30.06 in North 2 mph 7 mph 70% 0.00 in 0 W/m2
00:50 58.3 °F 49.3 °F 30.07 in Calm   2 mph 72% 0.00 in 0 W/m2
01:00 57.7 °F 47.6 °F 30.07 in North 2 mph 3 mph 69% 0.00 in 0 W/m2
01:10 56.8 °F 46.8 °F 30.07 in NW 1 mph 3 mph 69% 0.00 in 0 W/m2
01:20 56.2 °F 45.8 °F 30.07 in Calm   5 mph 68% 0.00 in 0 W/m2
01:30 55.8 °F 45.4 °F 30.07 in NNE 1 mph 2 mph 68% 0.00 in 0 W/m2
01:40 55.6 °F 45.2 °F 30.07 in ESE 2 mph 4 mph 68% 0.00 in 0 W/m2
01:50 55 °F 45.1 °F 30.07 in South 2 mph 3 mph 69% 0.00 in 0 W/m2
02:00 54.9 °F 44.5 °F 30.07 in ESE 2 mph 5 mph 68% 0.00 in 0 W/m2
02:10 54.7 °F 44.3 °F 30.07 in SSE 1 mph 6 mph 68% 0.00 in 0 W/m2
02:20 54.5 °F 44.9 °F 30.07 in NNW 1 mph 3 mph 70% 0.00 in 0 W/m2
02:30 54.1 °F 44.6 °F 30.07 in East 1 mph 3 mph 70% 0.00 in 0 W/m2
02:40 54 °F 45.1 °F 30.07 in ESE 2 mph 4 mph 72% 0.00 in 0 W/m2
02:50 53.8 °F 46 °F 30.07 in ENE 2 mph 4 mph 75% 0.00 in 0 W/m2
03:00 53.4 °F 46.4 °F 30.08 in Calm   3 mph 77% 0.00 in 0 W/m2
03:10 53.2 °F 46.6 °F 30.07 in NE 3 mph 5 mph 78% 0.00 in 0 W/m2
03:20 52.9 °F 46.2 °F 30.07 in Calm   3 mph 78% 0.00 in 0 W/m2
03:30 52.4 °F 45.8 °F 30.07 in Calm   2 mph 78% 0.00 in 0 W/m2
03:40 51.8 °F 45.5 °F 30.08 in Calm   2 mph 79% 0.00 in 0 W/m2
03:50 51.3 °F 45 °F 30.07 in NNW 1 mph 2 mph 79% 0.00 in 0 W/m2
04:00 51.1 °F 44.8 °F 30.08 in Calm   2 mph 79% 0.00 in 0 W/m2
04:10 51.1 °F 44.8 °F 30.08 in ENE 2 mph 6 mph 79% 0.00 in 0 W/m2
04:20 51.3 °F 45.6 °F 30.08 in East 1 mph 6 mph 81% 0.00 in 0 W/m2
04:30 51.2 °F 45.5 °F 30.08 in Calm   4 mph 81% 0.00 in 0 W/m2
04:40 50.7 °F 45.1 °F 30.08 in Calm   3 mph 81% 0.00 in 0 W/m2
04:50 50.6 °F 45 °F 30.08 in Calm   5 mph 81% 0.00 in 0 W/m2
05:00 50.2 °F 44.9 °F 30.08 in North 1 mph 2 mph 82% 0.00 in 4 W/m2
05:10 49.7 °F 45.1 °F 30.08 in North 1 mph 2 mph 84% 0.00 in 10 W/m2
05:20 49.2 °F 44.6 °F 30.09 in NNW 1 mph 3 mph 84% 0.00 in 17 W/m2
05:30 48.6 °F 43.9 °F 30.09 in WNW 1 mph 3 mph 84% 0.00 in 25 W/m2
05:40 48.1 °F 43.5 °F 30.09 in NNW 2 mph 3 mph 84% 0.00 in 32 W/m2
05:50 48 °F 43.7 °F 30.09 in North 2 mph 3 mph 85% 0.00 in 40 W/m2
06:00 48.4 °F 44.1 °F 30.09 in Calm   2 mph 85% 0.00 in 82 W/m2
06:10 48.4 °F 44.4 °F 30.09 in NNW 1 mph 2 mph 86% 0.00 in 68 W/m2
06:20 48.6 °F 44.6 °F 30.10 in Calm   2 mph 86% 0.00 in 144 W/m2
06:30 49 °F 45 °F 30.10 in Calm   2 mph 86% 0.00 in 111 W/m2
06:40 49.5 °F 45.4 °F 30.10 in Calm     86% 0.00 in 201 W/m2
06:50 50 °F 46 °F 30.10 in NNE 1 mph 3 mph 86% 0.00 in 238 W/m2
07:00 50.9 °F 47.5 °F 30.11 in Calm   4 mph 88% 0.00 in 271 W/m2
07:10 51.7 °F 47 °F 30.10 in NE 3 mph 6 mph 84% 0.00 in 313 W/m2
07:20 53 °F 48.3 °F 30.10 in NE 2 mph 5 mph 84% 0.00 in 347 W/m2
07:30 54.2 °F 49.2 °F 30.10 in ENE 2 mph 6 mph 83% 0.00 in 383 W/m2
07:40 55.4 °F 50 °F 30.10 in ENE 3 mph 5 mph 82% 0.00 in 418 W/m2
07:50 56.8 °F 50.7 °F 30.10 in ENE 1 mph 4 mph 80% 0.00 in 456 W/m2
Knjazevac, Serbia
Compliments of Weather Underground - 2 mb